Time;durP1;ratioP1;P1;durP2;ratioP2;P2;SDS_P1;SDS_P2;PMS_P1;PMS_P2;Temp;Humidity;BMP_temperature;BMP_pressure;BME280_temperature;BME280_humidity;BME280_pressure;Samples;Min_cycle;Max_cycle;Signal;HPM_P1;HPM_P2
2024/02/10 00:00:15;;;;;;;43.30;41.10;;;;;;;;;;5076514;28;20032;-67
2024/02/10 00:02:44;;;;;;;39.67;37.57;;;;;;;;;;5063319;28;20191;-67
2024/02/10 00:05:09;;;;;;;39.20;37.20;;;;;;;;;;5062594;28;20759;-67
2024/02/10 00:07:35;;;;;;;40.45;38.35;;;;;;;;;;5063038;28;20459;-67
2024/02/10 00:10:01;;;;;;;39.42;37.42;;;;;;;;;;5064469;28;20089;-67
2024/02/10 00:12:27;;;;;;;42.08;39.97;;;;;;;;;;5063287;28;20032;-67
2024/02/10 00:14:56;;;;;;;42.72;40.53;;;;;;;;;;5066480;28;20050;-67
2024/02/10 00:17:22;;;;;;;42.53;40.33;;;;;;;;;;5047651;28;20043;-55
2024/02/10 00:19:48;;;;;;;42.70;40.50;;;;;;;;;;5065102;28;20036;-54
2024/02/10 00:22:16;;;;;;;40.78;38.67;;;;;;;;;;5060897;28;20048;-52
2024/02/10 00:24:43;;;;;;;43.75;41.53;;;;;;;;;;5066157;28;20451;-52
2024/02/10 00:27:08;;;;;;;42.40;40.20;;;;;;;;;;5060435;28;20362;-66
2024/02/10 00:29:34;;;;;;;43.60;41.40;;;;;;;;;;5067515;28;20036;-66
2024/02/10 00:32:00;;;;;;;41.85;39.75;;;;;;;;;;5068622;28;20027;-66
2024/02/10 00:34:28;;;;;;;44.53;42.25;;;;;;;;;;5065554;28;20039;-66
2024/02/10 00:36:54;;;;;;;45.50;43.20;;;;;;;;;;5066689;28;20036;-65
2024/02/10 00:39:20;;;;;;;39.85;37.85;;;;;;;;;;5064195;28;20036;-66
2024/02/10 00:41:45;;;;;;;42.63;40.42;;;;;;;;;;5067013;28;20037;-53
2024/02/10 00:44:12;;;;;;;41.78;39.67;;;;;;;;;;5067133;28;20032;-50
2024/02/10 00:46:38;;;;;;;43.40;41.10;;;;;;;;;;5065338;28;20036;-50
2024/02/10 00:49:04;;;;;;;41.85;39.70;;;;;;;;;;5067405;28;20644;-54
2024/02/10 00:51:30;;;;;;;40.65;38.55;;;;;;;;;;5066729;28;20114;-53
2024/02/10 00:53:56;;;;;;;41.42;39.33;;;;;;;;;;5065585;28;20028;-52
2024/02/10 00:56:21;;;;;;;41.58;39.47;;;;;;;;;;5067671;28;20067;-50
2024/02/10 00:58:48;;;;;;;36.97;35.08;;;;;;;;;;5067680;28;20055;-50
2024/02/10 01:01:20;;;;;;;39.40;37.30;;;;;;;;;;5065730;28;20128;-48
2024/02/10 01:03:46;;;;;;;41.83;39.67;;;;;;;;;;5068234;28;20361;-50
2024/02/10 01:06:16;;;;;;;41.38;39.28;;;;;;;;;;5067261;28;20477;-51
2024/02/10 01:08:48;;;;;;;45.03;42.72;;;;;;;;;;5066059;28;20316;-50
2024/02/10 01:11:17;;;;;;;43.90;41.65;;;;;;;;;;5062913;28;20039;-49
2024/02/10 01:13:45;;;;;;;40.42;38.33;;;;;;;;;;5063134;28;20045;-49
2024/02/10 01:16:15;;;;;;;41.22;39.13;;;;;;;;;;5064333;28;20036;-52
2024/02/10 01:18:41;;;;;;;39.57;37.47;;;;;;;;;;5061082;28;20233;-52
2024/02/10 01:21:10;;;;;;;39.72;37.72;;;;;;;;;;5062641;28;20275;-49
2024/02/10 01:23:41;;;;;;;41.72;39.63;;;;;;;;;;5058292;28;20031;-49
2024/02/10 01:26:08;;;;;;;;;;;;;;;;;;5068704;28;20486;-54
2024/02/10 01:28:35;;;;;;;39.85;37.85;;;;;;;;;;5064030;28;19916;-66
2024/02/10 01:31:03;;;;;;;37.30;35.40;;;;;;;;;;5066163;28;20117;-66
2024/02/10 01:33:28;;;;;;;40.38;38.30;;;;;;;;;;5062678;28;20054;-65
2024/02/10 01:35:54;;;;;;;40.05;38.05;;;;;;;;;;5065130;28;20466;-66
2024/02/10 01:38:20;;;;;;;41.97;39.67;;;;;;;;;;5066057;28;20044;-52
2024/02/10 01:40:46;;;;;;;41.80;39.65;;;;;;;;;;5063634;28;20040;-66
2024/02/10 01:43:11;;;;;;;42.83;40.63;;;;;;;;;;5067305;28;20668;-65
2024/02/10 01:45:38;;;;;;;43.65;41.45;;;;;;;;;;5061286;28;20032;-66
2024/02/10 01:48:08;;;;;;;44.45;42.15;;;;;;;;;;5065255;28;20051;-65
2024/02/10 01:50:36;;;;;;;43.03;40.83;;;;;;;;;;5060738;28;20091;-66
2024/02/10 01:53:03;;;;;;;41.33;39.22;;;;;;;;;;5064388;28;20051;-66
2024/02/10 01:55:30;;;;;;;42.50;40.30;;;;;;;;;;5062276;28;20047;-66
2024/02/10 01:58:02;;;;;;;41.50;39.40;;;;;;;;;;5062057;28;20045;-66
2024/02/10 02:00:28;;;;;;;45.28;42.85;;;;;;;;;;5062495;28;20098;-65
2024/02/10 02:02:59;;;;;;;46.17;43.83;;;;;;;;;;5063650;28;20052;-65
2024/02/10 02:05:27;;;;;;;46.65;44.08;;;;;;;;;;5063404;28;20037;-65
2024/02/10 02:07:54;;;;;;;44.13;41.92;;;;;;;;;;5063199;28;20048;-65
2024/02/10 02:10:21;;;;;;;42.05;39.92;;;;;;;;;;5062114;28;20455;-65
2024/02/10 02:12:48;;;;;;;44.15;41.85;;;;;;;;;;5070569;28;20101;-65
2024/02/10 02:15:15;;;;;;;41.40;39.30;;;;;;;;;;5065146;28;20378;-65
2024/02/10 02:17:42;;;;;;;44.97;42.67;;;;;;;;;;5067445;28;20093;-65
2024/02/10 02:20:09;;;;;;;40.78;38.67;;;;;;;;;;5068407;28;20111;-65
2024/02/10 02:22:34;;;;;;;44.38;42.13;;;;;;;;;;5064279;28;20037;-50
2024/02/10 02:25:00;;;;;;;45.08;42.78;;;;;;;;;;5065014;28;20032;-49
2024/02/10 02:27:25;;;;;;;45.83;43.53;;;;;;;;;;5064723;28;20025;-51
2024/02/10 02:29:50;;;;;;;43.85;41.58;;;;;;;;;;5066674;28;20037;-51
2024/02/10 02:32:16;;;;;;;44.28;42.00;;;;;;;;;;5063536;28;20024;-53
2024/02/10 02:34:42;;;;;;;44.67;42.38;;;;;;;;;;5066306;28;20876;-64
2024/02/10 02:37:08;;;;;;;48.75;46.25;;;;;;;;;;5064561;28;21226;-64
2024/02/10 02:39:33;;;;;;;48.00;45.60;;;;;;;;;;5067601;28;20048;-64
2024/02/10 02:42:02;;;;;;;47.63;45.17;;;;;;;;;;5062017;28;20037;-65
2024/02/10 02:44:28;;;;;;;49.10;46.60;;;;;;;;;;5068883;28;20045;-65
2024/02/10 02:46:54;;;;;;;48.53;46.08;;;;;;;;;;5065210;28;20046;-65
2024/02/10 02:49:23;;;;;;;44.95;42.63;;;;;;;;;;5069833;28;20077;-65
2024/02/10 02:51:49;;;;;;;46.08;43.75;;;;;;;;;;5063070;28;20048;-53
2024/02/10 02:54:14;;;;;;;46.28;43.92;;;;;;;;;;5067146;28;20032;-65
2024/02/10 02:56:42;;;;;;;48.55;46.10;;;;;;;;;;5065734;28;20169;-65
2024/02/10 02:59:07;;;;;;;49.35;46.60;;;;;;;;;;5065809;28;20044;-65
2024/02/10 03:01:33;;;;;;;48.20;45.72;;;;;;;;;;5066380;28;20029;-50
2024/02/10 03:03:59;;;;;;;49.10;46.42;;;;;;;;;;5065811;28;20051;-66
2024/02/10 03:06:24;;;;;;;51.35;48.75;;;;;;;;;;5066528;28;20403;-65
2024/02/10 03:08:50;;;;;;;47.15;44.75;;;;;;;;;;5063139;28;20398;-65
2024/02/10 03:11:19;;;;;;;48.75;46.25;;;;;;;;;;5069229;28;20046;-64
2024/02/10 03:13:45;;;;;;;48.58;45.97;;;;;;;;;;5066696;28;20035;-64
2024/02/10 03:16:11;;;;;;;50.08;47.47;;;;;;;;;;5065612;28;20115;-64
2024/02/10 03:18:38;;;;;;;48.70;46.25;;;;;;;;;;5061672;28;20125;-65
2024/02/10 03:21:04;;;;;;;50.28;47.75;;;;;;;;;;5061893;28;20057;-65
2024/02/10 03:23:31;;;;;;;48.00;45.58;;;;;;;;;;5066635;28;20032;-65
2024/02/10 03:26:01;;;;;;;49.38;46.88;;;;;;;;;;5065838;28;20057;-64
2024/02/10 03:28:26;;;;;;;47.83;45.40;;;;;;;;;;5064843;28;20040;-64
2024/02/10 03:30:52;;;;;;;47.05;44.63;;;;;;;;;;5065821;28;20028;-65
2024/02/10 03:33:17;;;;;;;48.67;46.22;;;;;;;;;;5064193;28;20307;-64
2024/02/10 03:35:42;;;;;;;46.78;44.35;;;;;;;;;;5061472;28;20040;-65
2024/02/10 03:38:08;;;;;;;45.95;43.65;;;;;;;;;;5066335;28;20040;-64
2024/02/10 03:40:34;;;;;;;46.53;44.13;;;;;;;;;;5067233;28;20302;-64
2024/02/10 03:42:59;;;;;;;48.33;45.88;;;;;;;;;;5064937;28;20371;-51
2024/02/10 03:45:25;;;;;;;48.33;45.85;;;;;;;;;;5066927;28;20056;-64
2024/02/10 03:48:03;;;;;;;46.60;44.25;;;;;;;;;;5066936;28;20059;-65
2024/02/10 03:50:28;;;;;;;49.63;47.08;;;;;;;;;;5064587;28;20093;-65
2024/02/10 03:52:57;;;;;;;48.97;46.47;;;;;;;;;;5062095;28;20514;-50
2024/02/10 03:55:23;;;;;;;47.00;44.63;;;;;;;;;;5062164;28;20037;-63
2024/02/10 03:57:53;;;;;;;49.38;46.90;;;;;;;;;;5065502;28;20024;-63
2024/02/10 04:00:25;;;;;;;45.23;42.93;;;;;;;;;;5062976;28;20114;-63
2024/02/10 04:02:52;;;;;;;45.20;42.88;;;;;;;;;;5065201;28;20135;-54
2024/02/10 04:05:18;;;;;;;48.08;45.63;;;;;;;;;;5066767;28;20107;-63
2024/02/10 04:07:52;;;;;;;50.72;48.17;;;;;;;;;;5060350;28;20044;-65
2024/02/10 04:10:19;;;;;;;46.03;43.70;;;;;;;;;;5063228;28;20033;-64
2024/02/10 04:12:46;;;;;;;48.42;45.97;;;;;;;;;;5062765;28;20036;-53
2024/02/10 04:15:12;;;;;;;46.45;44.10;;;;;;;;;;5064971;28;20074;-54
2024/02/10 04:17:38;;;;;;;47.38;44.97;;;;;;;;;;5067020;28;20117;-63
2024/02/10 04:20:07;;;;;;;47.97;45.53;;;;;;;;;;5068371;28;20087;-63
2024/02/10 04:22:32;;;;;;;47.70;45.30;;;;;;;;;;5063143;28;20397;-64
2024/02/10 04:24:57;;;;;;;48.00;45.53;;;;;;;;;;5064362;28;20044;-64
2024/02/10 04:27:23;;;;;;;44.38;42.13;;;;;;;;;;5064164;28;20147;-64
2024/02/10 04:29:49;;;;;;;43.80;41.60;;;;;;;;;;5064534;28;20134;-64
2024/02/10 04:32:14;;;;;;;43.33;41.03;;;;;;;;;;5063322;28;20039;-64
2024/02/10 04:34:43;;;;;;;43.45;41.17;;;;;;;;;;5063403;28;20036;-64
2024/02/10 04:37:10;;;;;;;42.38;40.17;;;;;;;;;;5067007;28;20043;-63
2024/02/10 04:39:37;;;;;;;41.22;39.10;;;;;;;;;;5064905;28;20025;-64
2024/02/10 04:42:05;;;;;;;42.78;40.58;;;;;;;;;;5061753;28;20032;-64
2024/02/10 04:44:31;;;;;;;43.10;40.90;;;;;;;;;;5061918;28;20056;-64
2024/02/10 04:46:56;;;;;;;44.33;42.03;;;;;;;;;;5064297;28;20040;-64
2024/02/10 04:49:26;;;;;;;43.63;41.42;;;;;;;;;;5060124;28;20029;-64
2024/02/10 04:51:51;;;;;;;39.25;37.25;;;;;;;;;;5064207;28;20355;-64
2024/02/10 04:54:17;;;;;;;44.75;42.47;;;;;;;;;;5047389;28;20062;-64
2024/02/10 04:56:42;;;;;;;42.17;40.05;;;;;;;;;;5063663;28;20370;-64
2024/02/10 04:59:07;;;;;;;43.42;41.22;;;;;;;;;;5056124;28;20366;-64
2024/02/10 05:01:33;;;;;;;42.45;40.28;;;;;;;;;;5062042;28;20043;-64
2024/02/10 05:03:58;;;;;;;40.70;38.60;;;;;;;;;;5058761;28;20050;-64
2024/02/10 05:06:28;;;;;;;40.00;37.90;;;;;;;;;;5060498;28;20035;-64
2024/02/10 05:08:54;;;;;;;40.22;38.13;;;;;;;;;;5062405;28;20044;-64
2024/02/10 05:11:21;;;;;;;39.70;37.70;;;;;;;;;;5062804;28;20071;-64
2024/02/10 05:13:46;;;;;;;38.55;36.55;;;;;;;;;;5062742;28;20067;-64
2024/02/10 05:16:14;;;;;;;43.67;39.90;;;;;;;;;;5063327;28;20071;-65
2024/02/10 05:18:39;;;;;;;39.00;37.00;;;;;;;;;;5062196;28;20423;-64
2024/02/10 05:21:05;;;;;;;38.95;36.83;;;;;;;;;;5057846;28;20148;-64
2024/02/10 05:23:32;;;;;;;36.35;34.45;;;;;;;;;;5061590;28;20044;-64
2024/02/10 05:26:00;;;;;;;39.53;37.45;;;;;;;;;;5060860;28;20210;-65
2024/02/10 05:28:26;;;;;;;39.47;37.47;;;;;;;;;;5065274;28;20032;-65
2024/02/10 05:30:57;;;;;;;38.22;36.25;;;;;;;;;;5078561;28;20035;-64
2024/02/10 05:33:26;;;;;;;40.38;38.28;;;;;;;;;;5061587;28;20033;-64
2024/02/10 05:35:52;;;;;;;40.42;38.33;;;;;;;;;;5061569;28;20039;-64
2024/02/10 05:38:18;;;;;;;41.15;39.05;;;;;;;;;;5059122;28;20025;-64
2024/02/10 05:40:43;;;;;;;39.35;37.35;;;;;;;;;;5063375;28;20040;-51
2024/02/10 05:43:10;;;;;;;41.53;38.95;;;;;;;;;;5062144;28;20091;-53
2024/02/10 05:45:37;;;;;;;40.10;38.08;;;;;;;;;;5062446;28;20040;-50
2024/02/10 05:48:03;;;;;;;41.25;39.15;;;;;;;;;;5059203;28;20036;-49
2024/02/10 05:50:29;;;;;;;41.05;38.90;;;;;;;;;;5062636;28;20040;-54
2024/02/10 05:52:57;;;;;;;40.95;38.85;;;;;;;;;;5060312;28;20861;-51
2024/02/10 05:55:27;;;;;;;39.45;37.45;;;;;;;;;;5060727;28;20083;-51
2024/02/10 05:57:55;;;;;;;41.30;39.20;;;;;;;;;;5060817;28;20040;-51
2024/02/10 06:00:22;;;;;;;42.22;40.13;;;;;;;;;;5060799;28;20029;-51
2024/02/10 06:02:48;;;;;;;40.53;38.42;;;;;;;;;;5063431;28;20044;-53
2024/02/10 06:05:14;;;;;;;40.20;38.10;;;;;;;;;;5064140;28;20051;-50
2024/02/10 06:07:43;;;;;;;43.20;40.95;;;;;;;;;;5060130;28;20074;-51
2024/02/10 06:10:12;;;;;;;42.88;40.67;;;;;;;;;;5059284;28;20062;-50
2024/02/10 06:12:45;;;;;;;41.67;39.58;;;;;;;;;;5059410;28;20040;-50
2024/02/10 06:15:12;;;;;;;41.58;39.47;;;;;;;;;;5056289;28;20036;-53
2024/02/10 06:17:42;;;;;;;43.13;40.92;;;;;;;;;;5061651;28;20603;-48
2024/02/10 06:20:14;;;;;;;45.13;42.67;;;;;;;;;;5062393;28;20036;-52
2024/02/10 06:22:41;;;;;;;41.90;39.80;;;;;;;;;;5059841;28;20068;-49
2024/02/10 06:25:13;;;;;;;41.17;39.08;;;;;;;;;;5062550;28;20720;-49
2024/02/10 06:27:41;;;;;;;41.22;39.10;;;;;;;;;;5060878;28;20149;-51
2024/02/10 06:30:16;;;;;;;41.63;39.42;;;;;;;;;;5060238;28;20024;-53
2024/02/10 06:32:45;;;;;;;43.28;41.08;;;;;;;;;;5030143;28;20040;-49
2024/02/10 06:35:12;;;;;;;41.65;39.55;;;;;;;;;;5060743;28;20036;-51
2024/02/10 06:37:38;;;;;;;44.28;42.00;;;;;;;;;;5059620;28;20116;-50
2024/02/10 06:40:08;;;;;;;43.47;41.28;;;;;;;;;;5060632;28;20544;-51
2024/02/10 06:42:35;;;;;;;41.60;39.47;;;;;;;;;;5059639;28;20069;-48
2024/02/10 06:45:08;;;;;;;43.30;41.10;;;;;;;;;;5063401;28;20052;-51
2024/02/10 06:47:35;;;;;;;45.67;43.28;;;;;;;;;;5061275;28;20621;-52
2024/02/10 06:50:03;;;;;;;40.63;38.53;;;;;;;;;;5061707;28;20032;-53
2024/02/10 06:52:29;;;;;;;41.15;39.05;;;;;;;;;;5059340;28;20035;-49
2024/02/10 06:54:54;;;;;;;40.28;38.22;;;;;;;;;;5061376;28;20033;-49
2024/02/10 06:57:20;;;;;;;40.63;38.53;;;;;;;;;;5059103;28;20064;-54
2024/02/10 06:59:47;;;;;;;40.92;38.83;;;;;;;;;;5065660;28;20092;-63
2024/02/10 07:02:13;;;;;;;40.30;38.25;;;;;;;;;;5063625;28;20157;-50
2024/02/10 07:04:40;;;;;;;38.38;36.38;;;;;;;;;;5065286;28;20035;-63
2024/02/10 07:07:05;;;;;;;39.92;37.90;;;;;;;;;;5062637;28;20044;-48
2024/02/10 07:09:30;;;;;;;38.55;36.58;;;;;;;;;;5065925;28;20020;-63
2024/02/10 07:11:56;;;;;;;38.75;36.78;;;;;;;;;;5067803;28;20029;-52
2024/02/10 07:14:21;;;;;;;40.65;38.58;;;;;;;;;;5060636;28;20121;-51
2024/02/10 07:16:46;;;;;;;39.45;37.40;;;;;;;;;;5069706;28;20453;-51
2024/02/10 07:19:13;;;;;;;39.65;37.53;;;;;;;;;;5067433;28;20039;-49
2024/02/10 07:21:39;;;;;;;65.47;59.38;;;;;;;;;;5067531;28;20484;-61
2024/02/10 07:24:07;;;;;;;41.90;38.75;;;;;;;;;;5064122;28;20036;-51
2024/02/10 07:26:33;;;;;;;37.95;35.95;;;;;;;;;;5062030;28;20098;-50
2024/02/10 07:29:02;;;;;;;37.95;35.95;;;;;;;;;;5064257;28;20500;-49
2024/02/10 07:31:27;;;;;;;37.78;35.75;;;;;;;;;;5061065;28;20087;-51
2024/02/10 07:33:58;;;;;;;36.55;34.63;;;;;;;;;;5063489;28;20052;-49
2024/02/10 07:36:35;;;;;;;;;;;;;;;;;;5061327;28;20063;-62
2024/02/10 07:39:07;;;;;;;36.88;34.88;;;;;;;;;;5065434;28;19921;-54
2024/02/10 07:41:39;;;;;;;36.80;34.90;;;;;;;;;;5064616;28;20060;-62
2024/02/10 07:44:06;;;;;;;40.72;38.15;;;;;;;;;;5064979;28;20067;-62
2024/02/10 07:46:34;;;;;;;39.05;37.05;;;;;;;;;;5063348;28;20130;-62
2024/02/10 07:49:04;;;;;;;41.22;39.10;;;;;;;;;;5066208;28;20331;-62
2024/02/10 07:51:30;;;;;;;43.45;41.25;;;;;;;;;;5061725;28;20040;-52
2024/02/10 07:53:59;;;;;;;40.33;38.28;;;;;;;;;;5063745;28;20035;-60
2024/02/10 07:56:32;;;;;;;42.13;40.00;;;;;;;;;;5062870;28;20090;-52
2024/02/10 07:59:02;;;;;;;41.40;39.28;;;;;;;;;;5062288;28;20035;-52
2024/02/10 08:01:28;;;;;;;37.97;35.97;;;;;;;;;;5060348;28;20111;-62
2024/02/10 08:03:55;;;;;;;40.40;38.30;;;;;;;;;;5065247;28;20032;-52
2024/02/10 08:06:26;;;;;;;40.15;38.10;;;;;;;;;;5060507;28;20177;-53
2024/02/10 08:08:57;;;;;;;42.50;40.33;;;;;;;;;;5065017;28;20039;-50
2024/02/10 08:11:24;;;;;;;42.05;39.85;;;;;;;;;;5063597;28;20104;-50
2024/02/10 08:13:51;;;;;;;43.33;41.13;;;;;;;;;;5063214;28;21299;-50
2024/02/10 08:16:18;;;;;;;42.35;40.20;;;;;;;;;;5059929;28;20047;-48
2024/02/10 08:18:43;;;;;;;43.78;41.58;;;;;;;;;;5067451;28;20133;-61
2024/02/10 08:21:09;;;;;;;40.83;38.72;;;;;;;;;;5062973;28;20458;-52
2024/02/10 08:23:38;;;;;;;40.40;38.33;;;;;;;;;;5061719;28;20032;-49
2024/02/10 08:26:05;;;;;;;39.45;37.25;;;;;;;;;;5061750;28;20029;-50
2024/02/10 08:28:30;;;;;;;37.42;35.53;;;;;;;;;;5066140;28;20528;-47
2024/02/10 08:30:57;;;;;;;38.70;36.70;;;;;;;;;;5061378;28;20036;-51
2024/02/10 08:33:22;;;;;;;39.42;37.42;;;;;;;;;;5061655;28;20030;-49
2024/02/10 08:35:48;;;;;;;34.88;32.88;;;;;;;;;;5062651;28;20032;-51
2024/02/10 08:38:14;;;;;;;35.78;33.92;;;;;;;;;;5060272;28;20115;-61
2024/02/10 08:40:40;;;;;;;36.42;34.53;;;;;;;;;;5067247;28;20028;-49
2024/02/10 08:43:08;;;;;;;40.28;38.20;;;;;;;;;;5062789;28;20450;-54
2024/02/10 08:45:34;;;;;;;40.58;38.47;;;;;;;;;;5062597;28;20039;-61
2024/02/10 08:48:00;;;;;;;44.35;42.05;;;;;;;;;;5061585;28;20462;-52
2024/02/10 08:50:26;;;;;;;44.95;42.65;;;;;;;;;;5059129;28;20024;-50
2024/02/10 08:52:56;;;;;;;41.08;38.97;;;;;;;;;;5062172;28;20058;-49
2024/02/10 08:55:25;;;;;;;45.10;42.80;;;;;;;;;;5060137;28;20886;-63
2024/02/10 08:57:55;;;;;;;45.45;43.13;;;;;;;;;;5064253;28;20036;-61
2024/02/10 09:00:21;;;;;;;45.88;43.53;;;;;;;;;;5060768;28;20041;-50
2024/02/10 09:02:50;;;;;;;43.47;41.28;;;;;;;;;;5063291;28;20229;-51
2024/02/10 09:05:16;;;;;;;38.42;36.47;;;;;;;;;;5061055;28;20024;-52
2024/02/10 09:07:41;;;;;;;40.17;38.13;;;;;;;;;;5060838;28;20417;-50
2024/02/10 09:10:08;;;;;;;43.78;41.53;;;;;;;;;;5067872;28;20373;-50
2024/02/10 09:12:33;;;;;;;44.28;41.92;;;;;;;;;;5061162;28;20036;-52
2024/02/10 09:14:58;;;;;;;40.70;38.63;;;;;;;;;;5062294;28;20051;-54
2024/02/10 09:17:24;;;;;;;36.55;34.67;;;;;;;;;;5063205;28;20055;-54
2024/02/10 09:19:49;;;;;;;43.88;41.65;;;;;;;;;;5062954;28;20033;-51
2024/02/10 09:22:14;;;;;;;45.45;42.95;;;;;;;;;;5059759;28;20031;-53
2024/02/10 09:24:40;;;;;;;41.80;39.67;;;;;;;;;;5059308;28;20502;-49
2024/02/10 09:27:08;;;;;;;43.50;41.28;;;;;;;;;;5062384;28;20115;-51
2024/02/10 09:29:34;;;;;;;42.53;40.33;;;;;;;;;;5062695;28;20041;-53
2024/02/10 09:32:00;;;;;;;42.63;40.45;;;;;;;;;;5060351;28;20123;-51
2024/02/10 09:34:27;;;;;;;43.47;41.28;;;;;;;;;;5061122;28;20513;-53
2024/02/10 09:36:52;;;;;;;47.80;45.38;;;;;;;;;;5060136;28;20028;-51
2024/02/10 09:39:18;;;;;;;49.28;46.78;;;;;;;;;;5059445;28;20667;-51
2024/02/10 09:41:46;;;;;;;45.00;42.70;;;;;;;;;;5059524;28;20048;-52
2024/02/10 09:44:15;;;;;;;45.35;42.85;;;;;;;;;;5061865;28;20032;-53
2024/02/10 09:46:42;;;;;;;42.60;40.45;;;;;;;;;;5058828;28;20104;-49
2024/02/10 09:49:09;;;;;;;44.20;41.95;;;;;;;;;;5065322;28;20116;-52
2024/02/10 09:51:42;;;;;;;51.47;48.85;;;;;;;;;;5057803;28;20427;-47
2024/02/10 09:54:08;;;;;;;48.10;45.60;;;;;;;;;;5061500;28;20111;-50
2024/02/10 09:56:34;;;;;;;50.65;48.08;;;;;;;;;;5061181;28;20028;-63
2024/02/10 09:59:00;;;;;;;51.25;48.63;;;;;;;;;;5062019;28;20043;-62
2024/02/10 10:01:32;;;;;;;47.60;45.20;;;;;;;;;;5059861;28;20036;-64
2024/02/10 10:04:01;;;;;;;51.08;48.50;;;;;;;;;;5063606;28;20593;-62
2024/02/10 10:06:26;;;;;;;52.63;49.83;;;;;;;;;;5062738;28;20032;-49
2024/02/10 10:08:53;;;;;;;48.75;46.30;;;;;;;;;;5065084;28;20043;-53
2024/02/10 10:11:20;;;;;;;57.20;54.30;;;;;;;;;;5051392;28;20083;-52
2024/02/10 10:13:46;;;;;;;55.50;52.70;;;;;;;;;;5063583;28;20458;-63
2024/02/10 10:16:12;;;;;;;54.85;52.08;;;;;;;;;;5061998;28;20048;-52
2024/02/10 10:18:37;;;;;;;62.17;59.03;;;;;;;;;;5061427;28;20582;-53
2024/02/10 10:21:06;;;;;;;57.88;54.97;;;;;;;;;;5061484;28;21156;-51
2024/02/10 10:23:35;;;;;;;53.78;51.08;;;;;;;;;;5058768;28;20028;-63
2024/02/10 10:26:00;;;;;;;54.67;51.90;;;;;;;;;;5062047;28;20075;-51
2024/02/10 10:28:25;;;;;;;55.65;52.65;;;;;;;;;;5061668;28;20056;-62
2024/02/10 10:30:52;;;;;;;56.92;53.90;;;;;;;;;;5062877;28;20515;-64
2024/02/10 10:33:20;;;;;;;53.58;50.88;;;;;;;;;;5062274;28;20041;-64
2024/02/10 10:35:46;;;;;;;56.65;53.75;;;;;;;;;;5065599;28;20032;-49
2024/02/10 10:38:13;;;;;;;51.78;49.17;;;;;;;;;;5065080;28;20037;-49
2024/02/10 10:40:38;;;;;;;49.22;46.72;;;;;;;;;;5064492;28;20086;-49
2024/02/10 10:43:10;;;;;;;57.20;54.22;;;;;;;;;;5067119;28;20067;-63
2024/02/10 10:45:39;;;;;;;53.13;50.42;;;;;;;;;;5064735;28;20029;-63
2024/02/10 10:48:07;;;;;;;50.25;47.70;;;;;;;;;;5066806;28;20028;-63
2024/02/10 10:50:34;;;;;;;50.53;47.90;;;;;;;;;;5065137;28;20461;-63
2024/02/10 10:53:06;;;;;;;49.53;47.03;;;;;;;;;;5062320;28;20041;-63
2024/02/10 10:55:43;;;;;;;52.53;49.60;;;;;;;;;;5060226;28;20029;-64
2024/02/10 10:58:13;;;;;;;52.35;49.70;;;;;;;;;;5067406;28;20593;-64
2024/02/10 11:00:42;;;;;;;56.03;53.20;;;;;;;;;;5061870;28;20413;-51
2024/02/10 11:03:07;;;;;;;53.53;50.80;;;;;;;;;;5063322;28;20048;-50
2024/02/10 11:05:39;;;;;;;47.58;45.15;;;;;;;;;;5063523;28;20033;-51
2024/02/10 11:08:06;;;;;;;47.80;45.38;;;;;;;;;;5063737;28;20043;-61
2024/02/10 11:10:41;;;;;;;57.78;54.80;;;;;;;;;;5062030;28;20063;-61
2024/02/10 11:13:08;;;;;;;55.00;52.20;;;;;;;;;;5063353;28;20801;-62
2024/02/10 11:15:40;;;;;;;46.97;44.58;;;;;;;;;;5062084;28;20406;-62
2024/02/10 11:18:17;;;;;;;44.60;42.30;;;;;;;;;;5062568;28;20463;-53
2024/02/10 11:20:42;;;;;;;46.90;44.50;;;;;;;;;;5061726;28;20505;-51
2024/02/10 11:23:13;;;;;;;47.85;45.33;;;;;;;;;;5060544;28;20045;-50
2024/02/10 11:25:40;;;;;;;44.20;41.90;;;;;;;;;;5062415;28;20025;-50
2024/02/10 11:28:06;;;;;;;52.97;50.30;;;;;;;;;;5068417;28;20033;-62
2024/02/10 11:30:32;;;;;;;51.17;48.50;;;;;;;;;;5062477;28;20414;-61
2024/02/10 11:32:58;;;;;;;53.50;50.75;;;;;;;;;;5059693;28;20045;-62
2024/02/10 11:35:23;;;;;;;53.88;51.08;;;;;;;;;;5065214;28;20458;-62
2024/02/10 11:37:51;;;;;;;49.30;45.70;;;;;;;;;;5062649;28;20063;-62
2024/02/10 11:40:19;;;;;;;52.17;49.20;;;;;;;;;;5062318;28;20047;-51
2024/02/10 11:42:45;;;;;;;47.38;44.40;;;;;;;;;;5062701;28;20127;-52
2024/02/10 11:45:10;;;;;;;52.95;50.25;;;;;;;;;;5060121;28;20127;-60
2024/02/10 11:47:36;;;;;;;54.65;51.78;;;;;;;;;;5058798;28;20033;-61
2024/02/10 11:50:01;;;;;;;48.17;45.75;;;;;;;;;;5062098;28;20036;-62
2024/02/10 11:52:29;;;;;;;43.35;41.05;;;;;;;;;;5062736;28;20043;-53
2024/02/10 11:54:56;;;;;;;40.33;38.13;;;;;;;;;;5062526;28;20032;-61
2024/02/10 11:57:22;;;;;;;43.97;41.58;;;;;;;;;;5065809;28;20094;-62
2024/02/10 11:59:48;;;;;;;58.28;55.35;;;;;;;;;;5064161;28;20778;-62
2024/02/10 12:02:15;;;;;;;62.05;58.95;;;;;;;;;;5065155;28;20051;-62
2024/02/10 12:04:47;;;;;;;51.63;48.97;;;;;;;;;;5063278;28;20417;-62
2024/02/10 12:07:13;;;;;;;59.38;56.33;;;;;;;;;;5061797;28;20041;-54
2024/02/10 12:09:39;;;;;;;68.30;64.88;;;;;;;;;;5062483;28;20106;-62
2024/02/10 12:12:05;;;;;;;46.55;44.15;;;;;;;;;;5064426;28;20684;-52
2024/02/10 12:14:31;;;;;;;43.92;41.63;;;;;;;;;;5060912;28;20033;-52
2024/02/10 12:17:02;;;;;;;40.55;38.45;;;;;;;;;;5062192;28;20043;-63
2024/02/10 12:19:27;;;;;;;36.97;35.00;;;;;;;;;;5061981;28;20136;-63
2024/02/10 12:21:53;;;;;;;36.20;33.92;;;;;;;;;;5063521;28;21206;-50
2024/02/10 12:24:21;;;;;;;39.33;37.30;;;;;;;;;;5065623;28;20025;-63
2024/02/10 12:26:47;;;;;;;37.28;35.38;;;;;;;;;;5062580;28;20526;-63
2024/02/10 12:29:13;;;;;;;37.17;35.28;;;;;;;;;;5059650;28;20032;-49
2024/02/10 12:31:39;;;;;;;34.38;32.58;;;;;;;;;;5061877;28;20044;-63
2024/02/10 12:34:06;;;;;;;33.88;32.08;;;;;;;;;;5062676;28;20044;-51
2024/02/10 12:36:33;;;;;;;42.10;39.95;;;;;;;;;;5061866;28;20105;-48
2024/02/10 12:38:59;;;;;;;36.75;34.80;;;;;;;;;;5057867;28;20382;-49
2024/02/10 12:41:24;;;;;;;33.63;31.88;;;;;;;;;;5060502;28;20051;-52
2024/02/10 12:43:50;;;;;;;33.70;31.90;;;;;;;;;;5060013;28;20033;-62
2024/02/10 12:46:16;;;;;;;35.03;33.20;;;;;;;;;;5063099;28;20108;-62
2024/02/10 12:48:41;;;;;;;32.67;30.98;;;;;;;;;;5065082;28;20039;-62
2024/02/10 12:51:07;;;;;;;37.13;35.22;;;;;;;;;;5056802;28;20021;-50
2024/02/10 12:53:33;;;;;;;35.63;33.67;;;;;;;;;;5061547;28;20540;-52
2024/02/10 12:55:59;;;;;;;37.53;35.60;;;;;;;;;;5060810;28;20044;-50
2024/02/10 12:58:26;;;;;;;32.92;31.02;;;;;;;;;;5062467;28;20036;-62
2024/02/10 13:00:55;;;;;;;33.00;31.20;;;;;;;;;;5065128;28;20097;-49
2024/02/10 13:03:21;;;;;;;32.75;31.05;;;;;;;;;;5059922;28;20035;-52
2024/02/10 13:05:46;;;;;;;37.53;35.45;;;;;;;;;;5060864;28;20459;-62
2024/02/10 13:08:11;;;;;;;31.58;29.90;;;;;;;;;;5059668;28;20041;-62
2024/02/10 13:10:37;;;;;;;33.60;31.83;;;;;;;;;;5061198;28;20035;-63
2024/02/10 13:13:04;;;;;;;32.95;31.25;;;;;;;;;;5059839;28;20036;-51
2024/02/10 13:15:35;;;;;;;32.80;30.98;;;;;;;;;;5058611;28;20818;-62
2024/02/10 13:18:01;;;;;;;33.95;32.17;;;;;;;;;;5060984;28;20048;-63
2024/02/10 13:20:26;;;;;;;32.40;30.60;;;;;;;;;;5060516;28;20077;-62
2024/02/10 13:22:54;;;;;;;34.35;32.55;;;;;;;;;;5058628;28;20100;-52
2024/02/10 13:25:21;;;;;;;31.77;29.92;;;;;;;;;;5058486;28;20037;-52
2024/02/10 13:27:47;;;;;;;32.47;30.67;;;;;;;;;;5062848;28;20032;-52
2024/02/10 13:30:13;;;;;;;32.53;30.83;;;;;;;;;;5060699;28;20174;-50
2024/02/10 13:32:40;;;;;;;33.85;32.05;;;;;;;;;;5060573;28;20059;-52
2024/02/10 13:35:07;;;;;;;32.33;30.63;;;;;;;;;;5062404;28;20059;-63
2024/02/10 14:12:45;;;;;;;49.20;46.70;;;;;;;;;;5066319;28;20102;-53
2024/02/10 14:15:17;;;;;;;40.22;38.13;;;;;;;;;;5070728;28;20738;-63
2024/02/10 14:17:47;;;;;;;37.33;35.42;;;;;;;;;;5064235;28;20036;-62
2024/02/10 14:20:19;;;;;;;40.83;38.73;;;;;;;;;;5069497;28;20055;-49
2024/02/10 14:22:49;;;;;;;33.10;31.30;;;;;;;;;;5063853;28;20449;-49
2024/02/10 14:25:25;;;;;;;32.25;30.55;;;;;;;;;;5064888;28;20032;-62
2024/02/10 14:27:58;;;;;;;40.33;38.22;;;;;;;;;;5064098;28;20072;-62
2024/02/10 14:30:35;;;;;;;36.05;34.15;;;;;;;;;;5066573;28;20358;-63
2024/02/10 14:33:15;;;;;;;32.08;30.38;;;;;;;;;;5063653;28;20037;-63
2024/02/10 14:36:05;;;;;;;34.90;33.10;;;;;;;;;;5063225;28;20040;-50
2024/02/10 14:38:35;;;;;;;32.87;31.17;;;;;;;;;;5063184;28;20037;-62
2024/02/10 14:41:02;;;;;;;34.03;32.22;;;;;;;;;;5066014;28;20298;-64
2024/02/10 14:43:29;;;;;;;41.70;39.50;;;;;;;;;;5065324;28;20071;-62
2024/02/10 14:45:57;;;;;;;41.45;39.33;;;;;;;;;;5060480;28;20048;-62
2024/02/10 14:48:23;;;;;;;36.70;34.80;;;;;;;;;;5065842;28;20032;-62
2024/02/10 14:50:49;;;;;;;42.83;40.63;;;;;;;;;;5060050;28;20036;-63
2024/02/10 14:53:15;;;;;;;40.22;38.13;;;;;;;;;;5066320;28;20036;-63